createdAt,value
2019-04-26T00:02:23.957Z,15.00
2019-04-26T00:04:53.827Z,15.00
2019-04-26T00:07:23.912Z,15.10
2019-04-26T00:09:55.428Z,15.10
2019-04-26T00:12:41.974Z,15.20
2019-04-26T00:15:19.466Z,15.20
2019-04-26T00:17:51.227Z,15.30
2019-04-26T00:20:21.134Z,15.40
2019-04-26T00:22:51.938Z,15.40
2019-04-26T00:25:21.590Z,15.40
2019-04-26T00:27:51.236Z,15.40
2019-04-26T00:30:21.270Z,15.50
2019-04-26T00:32:51.048Z,15.50
2019-04-26T00:35:20.751Z,15.50
2019-04-26T00:37:50.476Z,15.50
2019-04-26T00:40:20.331Z,15.50
2019-04-26T00:42:50.298Z,15.60
2019-04-26T00:45:21.070Z,15.50
2019-04-26T00:47:52.348Z,15.60
2019-04-26T00:50:23.298Z,15.60
2019-04-26T00:52:53.613Z,15.60
2019-04-26T00:55:24.458Z,15.60
2019-04-26T00:57:53.319Z,15.60
2019-04-26T01:00:23.949Z,15.70
2019-04-26T01:02:55.310Z,15.70
2019-04-26T01:05:25.281Z,15.70
2019-04-26T01:07:57.029Z,15.70
2019-04-26T01:10:26.749Z,15.70
2019-04-26T01:12:56.462Z,15.70
2019-04-26T01:15:26.639Z,15.70
2019-04-26T01:17:56.400Z,15.70
2019-04-26T01:20:27.981Z,15.70
2019-04-26T01:23:00.654Z,15.70
2019-04-26T01:25:33.281Z,15.70
2019-04-26T01:28:05.387Z,15.70
2019-04-26T01:30:36.856Z,15.70
2019-04-26T01:33:07.102Z,15.70
2019-04-26T01:35:36.959Z,15.70
2019-04-26T01:38:10.051Z,15.70
2019-04-26T01:40:42.166Z,15.70
2019-04-26T01:43:26.385Z,15.70
2019-04-26T01:46:12.801Z,15.70
2019-04-26T01:49:06.691Z,15.70
2019-04-26T01:51:39.292Z,15.70
2019-04-26T01:54:11.486Z,15.70
2019-04-26T01:56:41.230Z,15.70
2019-04-26T01:59:13.899Z,15.70
2019-04-26T02:01:48.762Z,15.70
2019-04-26T02:04:18.695Z,15.80
2019-04-26T02:06:47.578Z,15.80
2019-04-26T02:09:17.614Z,15.80
2019-04-26T02:11:47.763Z,15.80
2019-04-26T02:14:17.460Z,15.80
2019-04-26T02:16:47.473Z,15.80
2019-04-26T02:19:17.130Z,15.80
2019-04-26T02:21:52.435Z,15.90
2019-04-26T02:24:28.003Z,15.80
2019-04-26T02:26:58.753Z,15.80
2019-04-26T02:29:28.598Z,15.80
2019-04-26T02:32:01.397Z,15.80
2019-04-26T02:34:35.376Z,15.80
2019-04-26T02:37:08.152Z,15.80
2019-04-26T02:39:40.579Z,15.80
2019-04-26T02:42:19.437Z,15.80
2019-04-26T02:44:53.727Z,15.80
2019-04-26T02:47:39.805Z,15.80
2019-04-26T02:50:28.306Z,15.90
2019-04-26T02:53:00.259Z,15.90
2019-04-26T02:55:49.780Z,15.90
2019-04-26T02:58:22.471Z,15.90
2019-04-26T03:00:53.233Z,15.90
2019-04-26T03:03:25.133Z,15.80
2019-04-26T03:05:55.374Z,15.80
2019-04-26T03:08:27.325Z,15.80
2019-04-26T03:10:59.985Z,15.90
2019-04-26T03:13:35.081Z,15.90
2019-04-26T03:16:10.082Z,15.90
2019-04-26T03:18:46.941Z,15.90
2019-04-26T03:21:25.638Z,15.90
2019-04-26T03:24:14.871Z,15.90
2019-04-26T03:26:59.669Z,16.00
2019-04-26T03:29:33.487Z,16.00
2019-04-26T03:32:06.636Z,16.00
2019-04-26T03:34:54.537Z,16.10
2019-04-26T03:37:36.549Z,16.10
2019-04-26T03:40:20.471Z,16.20
2019-04-26T03:42:53.160Z,16.20
2019-04-26T03:45:46.577Z,16.30
2019-04-26T03:48:20.035Z,16.30
2019-04-26T03:50:55.718Z,16.30
2019-04-26T03:53:28.417Z,16.40
2019-04-26T03:56:01.080Z,16.40
2019-04-26T03:59:01.008Z,16.40
2019-04-26T04:01:33.011Z,16.40
2019-04-26T04:04:20.984Z,16.30
2019-04-26T04:07:03.027Z,16.30
2019-04-26T04:09:25.778Z,16.30
2019-04-26T04:12:11.432Z,16.30
2019-04-26T04:14:57.932Z,16.20
2019-04-26T04:17:50.843Z,16.20
2019-04-26T04:20:30.761Z,16.20
2019-04-26T04:23:10.170Z,16.20
2019-04-26T04:25:49.253Z,16.20
2019-04-26T04:28:40.034Z,16.20
2019-04-26T04:31:24.764Z,16.20
2019-04-26T04:34:12.642Z,16.20
2019-04-26T04:36:46.899Z,16.20
2019-04-26T04:39:20.075Z,16.20
2019-04-26T04:41:57.070Z,16.20
2019-04-26T04:44:34.363Z,16.20
2019-04-26T04:47:23.840Z,16.20
2019-04-26T04:49:52.502Z,16.20
2019-04-26T04:52:37.086Z,16.20
2019-04-26T04:55:24.997Z,16.30
2019-04-26T04:58:20.499Z,16.30
2019-04-26T05:01:03.676Z,16.40
2019-04-26T05:03:37.910Z,16.40
2019-04-26T05:06:36.427Z,16.50
2019-04-26T05:09:12.956Z,16.60
2019-04-26T05:12:00.791Z,16.60
2019-04-26T05:14:52.263Z,16.70
2019-04-26T05:17:24.927Z,16.70
2019-04-26T05:19:57.667Z,16.70
2019-04-26T05:22:53.245Z,16.70
2019-04-26T05:26:00.924Z,16.70
2019-04-26T05:29:03.555Z,16.70
2019-04-26T05:31:56.259Z,16.80
2019-04-26T05:34:36.305Z,16.80
2019-04-26T05:37:28.775Z,16.90
2019-04-26T05:40:04.481Z,16.90
2019-04-26T05:42:53.915Z,17.00
2019-04-26T05:45:34.063Z,17.00
2019-04-26T05:48:57.791Z,17.00
2019-04-26T05:51:59.241Z,17.00
2019-04-26T05:54:59.228Z,17.10
2019-04-26T05:57:54.312Z,17.20
2019-04-26T06:00:37.414Z,17.20
2019-04-26T06:03:21.301Z,17.30
2019-04-26T06:06:13.601Z,17.40
2019-04-26T06:09:13.795Z,17.50
2019-04-26T06:12:09.271Z,17.60
2019-04-26T06:14:50.504Z,17.70
2019-04-26T06:17:57.309Z,17.80
2019-04-26T06:20:31.266Z,17.90
2019-04-26T06:23:19.079Z,18.00
2019-04-26T06:26:28.355Z,18.10
2019-04-26T06:29:07.669Z,18.20
2019-04-26T06:31:43.192Z,18.40
2019-04-26T06:34:15.911Z,18.50
2019-04-26T06:36:54.558Z,18.80
2019-04-26T06:39:39.545Z,19.00
2019-04-26T06:42:30.410Z,19.20
2019-04-26T06:45:16.673Z,19.40
2019-04-26T06:47:59.657Z,19.50
2019-04-26T06:50:50.395Z,19.70
2019-04-26T06:53:35.048Z,19.90
2019-04-26T06:56:38.199Z,20.10
2019-04-26T06:59:13.704Z,20.20
2019-04-26T07:02:13.760Z,20.50
2019-04-26T07:05:02.946Z,20.60
2019-04-26T07:07:38.228Z,20.70
2019-04-26T07:10:27.867Z,20.80
2019-04-26T07:13:27.576Z,21.00
2019-04-26T07:16:19.640Z,21.20
2019-04-26T07:19:03.452Z,21.30
2019-04-26T07:22:15.518Z,21.30
2019-04-26T07:25:09.001Z,21.30
2019-04-26T07:28:06.105Z,21.10
2019-04-26T07:30:44.277Z,20.90
2019-04-26T07:33:18.599Z,20.90
2019-04-26T07:36:18.107Z,20.80
2019-04-26T07:39:20.265Z,20.70
2019-04-26T07:42:26.040Z,20.60
2019-04-26T07:45:24.705Z,20.60
2019-04-26T07:48:18.491Z,20.60
2019-04-26T07:51:17.082Z,20.70
2019-04-26T07:54:06.688Z,20.80
2019-04-26T07:56:59.086Z,20.90
2019-04-26T07:59:56.058Z,21.00
2019-04-26T08:02:39.098Z,21.10
2019-04-26T08:05:14.818Z,21.10
2019-04-26T08:07:47.517Z,21.20
2019-04-26T08:10:20.102Z,21.10
2019-04-26T08:13:06.120Z,21.20
2019-04-26T08:15:46.271Z,21.30
2019-04-26T08:18:20.748Z,21.30
2019-04-26T08:20:57.030Z,21.40
2019-04-26T08:23:39.553Z,21.50
2019-04-26T08:26:06.139Z,21.70
2019-04-26T08:28:38.432Z,21.90
2019-04-26T08:31:11.195Z,22.00
2019-04-26T08:33:48.726Z,22.10
2019-04-26T08:36:18.322Z,22.20
2019-04-26T08:38:52.535Z,22.20
2019-04-26T08:41:23.105Z,22.10
2019-04-26T08:43:59.775Z,22.10
2019-04-26T08:46:36.140Z,22.10
2019-04-26T08:49:09.657Z,22.00
2019-04-26T08:51:41.950Z,21.90
2019-04-26T08:54:14.097Z,21.80
2019-04-26T08:56:49.795Z,21.70
2019-04-26T08:59:22.480Z,21.70
2019-04-26T09:02:09.972Z,21.50
2019-04-26T09:04:43.806Z,21.40
2019-04-26T09:07:19.127Z,21.30
2019-04-26T09:09:57.225Z,21.40
2019-04-26T09:12:25.560Z,21.50
2019-04-26T09:14:58.196Z,21.60
2019-04-26T09:17:32.049Z,21.50
2019-04-26T09:20:03.249Z,21.50
2019-04-26T09:22:33.278Z,21.50
2019-04-26T09:25:04.643Z,21.50
2019-04-26T09:27:50.830Z,21.60
2019-04-26T09:30:33.379Z,21.70
2019-04-26T09:33:06.678Z,21.90
2019-04-26T09:35:36.311Z,21.90
2019-04-26T09:38:05.978Z,21.90
2019-04-26T09:40:34.854Z,21.80
2019-04-26T09:43:10.585Z,21.70
2019-04-26T09:45:48.309Z,21.60
2019-04-26T09:48:19.694Z,21.70
2019-04-26T09:50:51.052Z,21.80
2019-04-26T09:53:20.698Z,21.90
2019-04-26T09:55:50.435Z,21.90
2019-04-26T09:58:20.023Z,21.80
2019-04-26T10:00:50.280Z,21.70
2019-04-26T10:03:20.020Z,21.60
2019-04-26T10:05:52.104Z,21.40
2019-04-26T10:08:20.139Z,21.20
2019-04-26T10:10:51.572Z,21.10
2019-04-26T10:13:30.546Z,21.00
2019-04-26T10:16:07.608Z,20.90
2019-04-26T10:18:38.816Z,20.70
2019-04-26T10:21:08.541Z,20.60
2019-04-26T10:23:38.187Z,20.40
2019-04-26T10:26:08.570Z,20.30
2019-04-26T10:28:38.219Z,20.20
2019-04-26T10:31:07.928Z,20.00
2019-04-26T10:33:37.858Z,20.00
2019-04-26T10:36:07.721Z,20.00
2019-04-26T10:38:36.550Z,20.00
2019-04-26T10:41:06.654Z,19.90
2019-04-26T10:43:36.298Z,19.60
2019-04-26T10:46:05.946Z,19.40
2019-04-26T10:48:35.615Z,19.30
2019-04-26T10:51:07.326Z,19.00
2019-04-26T10:53:47.144Z,18.90
2019-04-26T10:56:27.314Z,18.90
2019-04-26T10:59:01.782Z,18.80
2019-04-26T11:01:31.561Z,18.80
2019-04-26T11:04:01.076Z,18.80
2019-04-26T11:06:30.722Z,18.80
2019-04-26T11:09:00.391Z,18.90
2019-04-26T11:11:30.427Z,18.80
2019-04-26T11:14:00.077Z,18.70
2019-04-26T11:16:29.518Z,18.70
2019-04-26T11:19:01.216Z,18.70
2019-04-26T11:21:30.650Z,18.70
2019-04-26T11:24:00.302Z,18.70
2019-04-26T11:26:31.084Z,18.80
2019-04-26T11:29:01.768Z,18.90
2019-04-26T11:31:31.423Z,18.90
2019-04-26T11:34:05.562Z,19.00
2019-04-26T11:36:44.503Z,19.10
2019-04-26T11:39:16.008Z,19.20
2019-04-26T11:41:45.716Z,19.50
2019-04-26T11:44:15.369Z,19.90
2019-04-26T11:46:46.067Z,20.40
2019-04-26T11:49:14.910Z,20.80
2019-04-26T11:51:44.479Z,21.20
2019-04-26T11:54:16.923Z,21.30
2019-04-26T11:56:45.285Z,21.40
2019-04-26T11:59:14.998Z,21.50
2019-04-26T12:01:43.955Z,21.60
2019-04-26T12:04:20.912Z,21.70
2019-04-26T12:06:57.709Z,21.70
2019-04-26T12:09:34.618Z,21.70
2019-04-26T12:12:05.255Z,21.70
2019-04-26T12:14:35.862Z,21.60
2019-04-26T12:17:05.499Z,21.60
2019-04-26T12:19:34.360Z,21.50
2019-04-26T12:22:08.324Z,21.60
2019-04-26T12:24:37.727Z,21.70
2019-04-26T12:27:10.114Z,21.90
2019-04-26T12:29:38.862Z,22.10
2019-04-26T12:32:08.512Z,22.40
2019-04-26T12:34:38.270Z,22.60
2019-04-26T12:37:07.081Z,22.80
2019-04-26T12:39:38.167Z,23.10
2019-04-26T12:42:11.944Z,23.30
2019-04-26T12:44:41.201Z,23.60
2019-04-26T12:47:12.545Z,24.00
2019-04-26T12:49:42.343Z,24.40
2019-04-26T12:52:12.435Z,24.50
2019-04-26T12:54:43.110Z,24.50
2019-04-26T12:57:16.105Z,24.40
2019-04-26T12:59:44.705Z,24.10
2019-04-26T13:02:16.641Z,23.80
2019-04-26T13:04:45.870Z,23.60
2019-04-26T13:07:23.464Z,23.50
2019-04-26T13:09:49.203Z,23.40
2019-04-26T13:12:20.495Z,23.50
2019-04-26T13:14:51.778Z,23.60
2019-04-26T13:17:31.311Z,23.80
2019-04-26T13:20:01.454Z,24.00
2019-04-26T13:22:45.389Z,24.30
2019-04-26T13:25:05.030Z,24.50
2019-04-26T13:27:34.743Z,24.80
2019-04-26T13:30:06.778Z,25.00
2019-04-26T13:32:37.560Z,25.10
2019-04-26T13:35:07.164Z,24.80
2019-04-26T13:37:37.742Z,24.90
2019-04-26T13:40:08.310Z,25.20
2019-04-26T13:42:37.951Z,25.50
2019-04-26T13:45:08.382Z,25.70
2019-04-26T13:47:39.661Z,26.00
2019-04-26T13:50:28.253Z,26.30
2019-04-26T13:52:58.050Z,26.60
2019-04-26T13:55:29.408Z,26.80
2019-04-26T13:57:58.968Z,26.70
2019-04-26T14:00:30.246Z,26.70
2019-04-26T14:02:59.980Z,27.10
2019-04-26T14:05:29.471Z,27.30
2019-04-26T14:08:00.124Z,27.50
2019-04-26T14:10:29.894Z,27.50
2019-04-26T14:12:59.621Z,27.60
2019-04-26T14:15:29.318Z,27.60
2019-04-26T14:18:00.328Z,27.70
2019-04-26T14:20:30.503Z,27.80
2019-04-26T14:23:01.838Z,27.80
2019-04-26T14:25:49.515Z,27.90
2019-04-26T14:28:32.850Z,28.10
2019-04-26T14:31:02.492Z,28.30
2019-04-26T14:33:32.287Z,28.50
2019-04-26T14:36:02.089Z,28.50
2019-04-26T14:38:39.422Z,28.60
2019-04-26T14:41:04.333Z,28.70
2019-04-26T14:43:41.140Z,28.70
2019-04-26T14:46:05.538Z,28.80
2019-04-26T14:48:36.450Z,29.10
2019-04-26T14:51:08.329Z,29.20
2019-04-26T14:53:38.035Z,29.00
2019-04-26T14:56:07.665Z,29.10
2019-04-26T14:58:37.301Z,29.60
2019-04-26T15:01:15.311Z,30.30
2019-04-26T15:03:51.370Z,31.50
2019-04-26T15:06:23.668Z,32.00
2019-04-26T15:08:53.529Z,33.50
2019-04-26T15:11:23.129Z,35.80
2019-04-26T15:13:52.720Z,37.70
2019-04-26T15:16:24.383Z,38.70
2019-04-26T15:18:53.595Z,39.40
2019-04-26T15:21:23.174Z,40.20
2019-04-26T15:23:55.276Z,40.40
2019-04-26T15:26:29.557Z,40.50
2019-04-26T15:28:55.275Z,41.60
2019-04-26T15:31:25.157Z,42.30
2019-04-26T15:33:54.788Z,43.10
2019-04-26T15:36:24.526Z,42.90
2019-04-26T15:38:54.699Z,41.80
2019-04-26T15:41:33.091Z,39.00
2019-04-26T15:44:07.314Z,36.30
2019-04-26T15:46:42.589Z,33.80
2019-04-26T15:49:22.326Z,31.50
2019-04-26T15:51:51.894Z,28.40
2019-04-26T15:54:22.980Z,25.20
2019-04-26T15:56:53.804Z,23.60
2019-04-26T15:59:25.385Z,23.80
2019-04-26T16:01:56.350Z,24.90
2019-04-26T16:04:26.162Z,23.80
2019-04-26T16:06:55.992Z,22.40
2019-04-26T16:09:24.993Z,21.30
2019-04-26T16:11:55.265Z,20.50
2019-04-26T16:14:31.426Z,20.40
2019-04-26T16:16:58.227Z,20.70
2019-04-26T16:19:29.365Z,20.80
2019-04-26T16:21:58.303Z,21.40
2019-04-26T16:24:28.929Z,22.60
2019-04-26T16:26:58.708Z,23.50
2019-04-26T16:29:46.786Z,24.60
2019-04-26T16:32:27.019Z,25.60
2019-04-26T16:34:56.792Z,26.60
2019-04-26T16:37:26.512Z,27.40
2019-04-26T16:39:55.387Z,28.10
2019-04-26T16:42:25.018Z,28.40
2019-04-26T16:44:55.265Z,28.40
2019-04-26T16:47:25.188Z,28.30
2019-04-26T16:49:55.114Z,27.90
2019-04-26T16:52:24.783Z,27.40
2019-04-26T16:55:02.331Z,27.00
2019-04-26T16:57:26.779Z,26.10
2019-04-26T16:59:59.842Z,25.00
2019-04-26T17:02:28.186Z,24.00
2019-04-26T17:05:04.554Z,23.20
2019-04-26T17:07:29.053Z,23.00
2019-04-26T17:09:59.783Z,23.20
2019-04-26T17:12:33.057Z,23.60
2019-04-26T17:15:03.382Z,24.10
2019-04-26T17:17:34.509Z,24.60
2019-04-26T17:20:06.675Z,24.90
2019-04-26T17:22:59.514Z,25.00
2019-04-26T17:25:42.573Z,25.20
2019-04-26T17:28:14.007Z,25.30
2019-04-26T17:30:44.669Z,25.50
2019-04-26T17:33:14.352Z,25.60
2019-04-26T17:35:44.077Z,25.50
2019-04-26T17:38:12.947Z,25.20
2019-04-26T17:40:42.570Z,24.90
2019-04-26T17:43:13.196Z,24.70
2019-04-26T17:45:44.132Z,24.10
2019-04-26T17:48:14.274Z,23.60
2019-04-26T17:50:44.093Z,22.90
2019-04-26T17:53:20.338Z,22.40
2019-04-26T17:55:45.884Z,21.70
2019-04-26T17:58:17.851Z,21.20
2019-04-26T18:00:47.426Z,20.70
2019-04-26T18:03:17.241Z,20.20
2019-04-26T18:05:56.855Z,19.80
2019-04-26T18:08:33.673Z,19.40
2019-04-26T18:10:48.672Z,19.00
2019-04-26T18:13:18.473Z,18.60
2019-04-26T18:15:48.583Z,18.30
2019-04-26T18:18:36.178Z,18.00
2019-04-26T18:21:07.488Z,17.70
2019-04-26T18:23:37.119Z,17.50
2019-04-26T18:26:06.766Z,17.20
2019-04-26T18:28:36.414Z,17.00
2019-04-26T18:31:07.778Z,16.70
2019-04-26T18:33:37.400Z,16.50
2019-04-26T18:36:06.990Z,16.30
2019-04-26T18:38:36.606Z,16.10
2019-04-26T18:41:06.431Z,15.90
2019-04-26T18:43:36.500Z,15.70
2019-04-26T18:46:10.511Z,15.50
2019-04-26T18:48:42.065Z,15.40
2019-04-26T18:51:12.205Z,15.20
2019-04-26T18:53:53.169Z,15.00
2019-04-26T18:56:24.155Z,14.80
2019-04-26T18:58:55.630Z,14.60
2019-04-26T19:01:25.012Z,14.50
2019-04-26T19:03:54.836Z,14.40
2019-04-26T19:06:31.062Z,14.30
2019-04-26T19:08:57.640Z,14.20
2019-04-26T19:11:27.103Z,14.00
2019-04-26T19:14:16.498Z,13.90
2019-04-26T19:17:06.129Z,13.90
2019-04-26T19:19:41.783Z,13.80
2019-04-26T19:22:15.471Z,13.70
2019-04-26T19:24:42.946Z,13.60
2019-04-26T19:27:12.648Z,13.50
2019-04-26T19:29:43.328Z,13.50
2019-04-26T19:32:13.202Z,13.40
2019-04-26T19:34:42.892Z,13.40
2019-04-26T19:37:12.590Z,13.30
2019-04-26T19:39:42.703Z,13.20
2019-04-26T19:42:13.420Z,13.20
2019-04-26T19:44:43.205Z,13.10
2019-04-26T19:47:17.407Z,13.10
2019-04-26T19:49:52.433Z,13.00
2019-04-26T19:52:33.631Z,13.00
2019-04-26T19:55:18.278Z,12.90
2019-04-26T19:58:04.443Z,12.80
2019-04-26T20:00:34.204Z,12.70
2019-04-26T20:03:03.914Z,12.70
2019-04-26T20:05:36.403Z,12.60
2019-04-26T20:08:06.077Z,12.50
2019-04-26T20:10:40.441Z,12.40
2019-04-26T20:13:13.375Z,12.40
2019-04-26T20:15:38.764Z,12.30
2019-04-26T20:18:08.568Z,12.20
2019-04-26T20:20:38.196Z,12.10
2019-04-26T20:23:08.113Z,12.10
2019-04-26T20:25:37.958Z,12.10
2019-04-26T20:28:07.606Z,12.00
2019-04-26T20:30:42.187Z,12.10
2019-04-26T20:33:12.233Z,12.10
2019-04-26T20:35:42.414Z,12.10
2019-04-26T20:38:12.174Z,12.10
2019-04-26T20:40:43.469Z,12.10
2019-04-26T20:43:23.380Z,12.00
2019-04-26T20:46:07.888Z,11.90
2019-04-26T20:48:15.839Z,11.90
2019-04-26T20:50:45.542Z,11.80
2019-04-26T20:53:16.121Z,11.70
2019-04-26T20:55:47.147Z,11.60
2019-04-26T20:58:16.977Z,11.60
2019-04-26T21:00:54.162Z,11.60
2019-04-26T21:03:23.621Z,11.50
2019-04-26T21:05:52.814Z,11.50
2019-04-26T21:08:25.678Z,11.50
2019-04-26T21:10:56.134Z,11.40
2019-04-26T21:13:30.562Z,11.40
2019-04-26T21:15:58.465Z,11.40
2019-04-26T21:18:27.114Z,11.40
2019-04-26T21:20:56.701Z,11.40
2019-04-26T21:23:26.479Z,11.30
2019-04-26T21:26:16.431Z,11.30
2019-04-26T21:28:48.416Z,11.30
2019-04-26T21:31:22.632Z,11.30
2019-04-26T21:34:00.700Z,11.30
2019-04-26T21:36:48.706Z,11.30
2019-04-26T21:39:28.940Z,11.30
2019-04-26T21:42:00.244Z,11.40
2019-04-26T21:44:29.779Z,11.40
2019-04-26T21:46:59.485Z,11.50
2019-04-26T21:49:30.259Z,11.50
2019-04-26T21:51:59.903Z,11.50
2019-04-26T21:54:29.710Z,11.50
2019-04-26T21:56:59.463Z,11.40
2019-04-26T21:59:29.262Z,11.40
2019-04-26T22:01:59.420Z,11.30
2019-04-26T22:04:36.351Z,11.30
2019-04-26T22:07:05.024Z,11.20
2019-04-26T22:09:36.798Z,11.30
2019-04-26T22:12:08.153Z,11.20
2019-04-26T22:14:46.276Z,11.20
2019-04-26T22:17:17.833Z,11.20
2019-04-26T22:19:49.032Z,11.20
2019-04-26T22:22:37.301Z,11.20
2019-04-26T22:25:06.766Z,11.20
2019-04-26T22:27:36.383Z,11.10
2019-04-26T22:30:09.465Z,11.10
2019-04-26T22:32:39.100Z,11.00
2019-04-26T22:35:08.908Z,10.90
2019-04-26T22:37:41.387Z,10.80
2019-04-26T22:40:10.613Z,10.90
2019-04-26T22:42:43.921Z,10.80
2019-04-26T22:45:23.384Z,10.80
2019-04-26T22:47:57.068Z,10.80
2019-04-26T22:50:26.933Z,10.80
2019-04-26T22:52:56.483Z,10.80
2019-04-26T22:55:27.499Z,10.80
2019-04-26T22:57:57.396Z,10.80
2019-04-26T23:00:29.564Z,10.80
2019-04-26T23:03:03.712Z,10.80
2019-04-26T23:05:35.098Z,10.80
2019-04-26T23:08:03.344Z,10.80
2019-04-26T23:10:34.775Z,10.80
2019-04-26T23:13:07.837Z,10.70
2019-04-26T23:15:55.382Z,10.60
2019-04-26T23:18:29.611Z,10.60
2019-04-26T23:21:07.794Z,10.50
2019-04-26T23:23:40.950Z,10.30
2019-04-26T23:26:09.583Z,10.30
2019-04-26T23:28:39.182Z,10.20
2019-04-26T23:31:09.229Z,10.20
2019-04-26T23:33:38.982Z,10.10
2019-04-26T23:36:08.690Z,10.10
2019-04-26T23:38:38.451Z,10.00
2019-04-26T23:41:08.143Z,9.90
2019-04-26T23:43:37.795Z,9.80
2019-04-26T23:46:07.507Z,9.80
2019-04-26T23:48:37.184Z,9.80
2019-04-26T23:51:08.342Z,9.80
2019-04-26T23:53:37.998Z,9.70
2019-04-26T23:56:07.652Z,9.70
2019-04-26T23:58:40.249Z,9.70
